createdAt,value
2019-01-09T00:00:57.804Z,1.49
2019-01-09T00:03:26.870Z,1.48
2019-01-09T00:08:31.785Z,1.44
2019-01-09T00:11:00.858Z,1.52
2019-01-09T00:13:29.892Z,1.47
2019-01-09T00:15:59.167Z,1.50
2019-01-09T00:18:28.467Z,1.50
2019-01-09T00:20:57.684Z,1.52
2019-01-09T00:23:26.896Z,1.47
2019-01-09T00:25:57.981Z,1.32
2019-01-09T00:28:27.073Z,1.29
2019-01-09T00:30:56.185Z,1.33
2019-01-09T00:33:29.795Z,1.33
2019-01-09T00:35:58.858Z,1.41
2019-01-09T00:38:28.003Z,1.41
2019-01-09T00:40:58.095Z,1.41
2019-01-09T00:43:27.135Z,1.48
2019-01-09T00:45:56.182Z,1.46
2019-01-09T00:48:25.363Z,1.42
2019-01-09T00:50:54.402Z,1.47
2019-01-09T00:53:23.439Z,1.44
2019-01-09T00:55:52.491Z,1.44
2019-01-09T00:58:23.058Z,1.49
2019-01-09T01:00:53.311Z,1.45
2019-01-09T01:09:17.118Z,1.51
2019-01-09T01:17:37.518Z,1.48
2019-01-09T01:20:08.197Z,1.50
2019-01-09T01:22:54.200Z,1.43
2019-01-09T01:25:29.701Z,1.36
2019-01-09T01:28:11.121Z,1.38
2019-01-09T01:30:50.003Z,1.42
2019-01-09T01:33:28.413Z,1.41
2019-01-09T01:36:06.190Z,1.44
2019-01-09T01:38:38.774Z,1.43
2019-01-09T01:43:59.458Z,1.42
2019-01-09T01:57:40.083Z,1.36
2019-01-09T02:05:43.558Z,1.48
2019-01-09T02:08:23.372Z,1.45
2019-01-09T02:11:16.744Z,1.40
2019-01-09T02:14:06.284Z,1.41
2019-01-09T02:19:20.902Z,1.46
2019-01-09T02:24:53.181Z,1.42
2019-01-09T02:27:27.461Z,1.41
2019-01-09T02:33:01.388Z,1.33
2019-01-09T02:35:31.358Z,1.33
2019-01-09T02:38:00.432Z,1.29
2019-01-09T02:40:29.463Z,1.27
2019-01-09T02:42:58.555Z,1.25
2019-01-09T02:45:29.878Z,1.23
2019-01-09T02:47:58.925Z,1.30
2019-01-09T02:50:27.973Z,1.30
2019-01-09T02:52:57.959Z,1.38
2019-01-09T02:55:27.044Z,1.41
2019-01-09T03:00:31.920Z,1.37
2019-01-09T03:03:00.974Z,1.28
2019-01-09T03:05:30.009Z,1.18
2019-01-09T03:07:59.077Z,1.15
2019-01-09T03:19:19.666Z,0.96
2019-01-09T03:21:48.750Z,0.90
2019-01-09T03:24:17.791Z,0.95
2019-01-09T03:26:46.852Z,0.94
2019-01-09T03:29:15.922Z,0.90
2019-01-09T03:31:44.974Z,0.91
2019-01-09T03:34:22.022Z,0.84
2019-01-09T03:36:51.969Z,0.72
2019-01-09T03:39:21.048Z,0.68
2019-01-09T03:41:50.116Z,0.72
2019-01-09T03:46:54.885Z,0.72
2019-01-09T03:49:23.997Z,0.73
2019-01-09T03:51:53.057Z,0.73
2019-01-09T03:54:22.102Z,0.70
2019-01-09T03:56:51.147Z,0.67
2019-01-09T03:59:20.198Z,0.68
2019-01-09T04:01:49.257Z,0.71
2019-01-09T04:06:53.583Z,0.74
2019-01-09T04:09:23.150Z,0.71
2019-01-09T04:11:51.691Z,0.73
2019-01-09T04:14:20.341Z,0.67
2019-01-09T04:16:48.846Z,0.82
2019-01-09T04:19:17.616Z,1.00
2019-01-09T04:21:46.166Z,0.73
2019-01-09T04:24:15.347Z,0.44
2019-01-09T04:26:44.789Z,0.37
2019-01-09T04:29:13.378Z,0.25
2019-01-09T04:31:41.895Z,0.12
2019-01-09T04:34:10.454Z,0.05
2019-01-09T04:36:38.990Z,0.18
2019-01-09T04:39:07.626Z,0.12
2019-01-09T04:41:36.131Z,0.17
2019-01-09T04:44:04.780Z,0.14
2019-01-09T04:46:33.420Z,0.06
2019-01-09T04:49:01.874Z,0.07
2019-01-09T04:51:30.490Z,0.12
2019-01-09T04:53:59.434Z,0.17
2019-01-09T04:56:32.952Z,0.29
2019-01-09T04:59:01.517Z,0.22
2019-01-09T05:01:30.948Z,0.24
2019-01-09T05:03:59.490Z,0.19
2019-01-09T05:06:28.043Z,0.25
2019-01-09T05:08:56.575Z,0.18
2019-01-09T05:11:25.102Z,0.25
2019-01-09T05:13:54.542Z,0.19
2019-01-09T05:16:23.094Z,0.18
2019-01-09T05:18:52.533Z,0.21
2019-01-09T05:21:21.091Z,0.20
2019-01-09T05:23:49.615Z,0.24
2019-01-09T05:26:19.053Z,0.33
2019-01-09T05:28:48.527Z,0.42
2019-01-09T05:31:17.088Z,0.47
2019-01-09T05:33:55.026Z,0.48
2019-01-09T05:36:23.723Z,0.53
2019-01-09T05:38:52.301Z,0.50
2019-01-09T05:41:20.862Z,0.50
2019-01-09T05:43:50.432Z,0.48
2019-01-09T05:46:18.989Z,0.55
2019-01-09T05:48:47.547Z,0.63
2019-01-09T05:51:16.073Z,0.59
2019-01-09T05:53:48.706Z,0.58
2019-01-09T05:56:18.198Z,0.58
2019-01-09T05:58:46.772Z,0.43
2019-01-09T06:01:15.347Z,0.46
2019-01-09T06:03:43.881Z,0.50
2019-01-09T06:06:12.405Z,0.49
2019-01-09T06:08:40.929Z,0.56
2019-01-09T06:11:09.508Z,0.65
2019-01-09T06:13:40.040Z,0.60
2019-01-09T06:16:08.536Z,0.56
2019-01-09T06:18:37.127Z,0.55
2019-01-09T06:21:06.237Z,0.58
2019-01-09T06:23:35.339Z,0.52
2019-01-09T06:26:04.420Z,0.62
2019-01-09T06:28:32.945Z,0.56
2019-01-09T06:31:02.565Z,0.60
2019-01-09T06:33:41.159Z,0.50
2019-01-09T06:36:09.661Z,0.46
2019-01-09T06:38:38.197Z,0.48
2019-01-09T06:41:06.738Z,0.56
2019-01-09T06:43:35.265Z,0.59
2019-01-09T06:46:03.817Z,0.57
2019-01-09T06:48:32.328Z,0.54
2019-01-09T06:51:00.886Z,0.56
2019-01-09T06:53:29.437Z,0.49
2019-01-09T06:55:57.948Z,0.51
2019-01-09T06:58:26.706Z,0.45
2019-01-09T07:00:55.217Z,0.34
2019-01-09T07:03:23.776Z,0.37
2019-01-09T07:05:52.457Z,0.30
2019-01-09T07:08:20.990Z,0.22
2019-01-09T07:10:49.531Z,0.25
2019-01-09T07:13:18.063Z,0.18
2019-01-09T07:15:46.576Z,0.23
2019-01-09T07:18:15.125Z,0.36
2019-01-09T07:20:44.584Z,0.36
2019-01-09T07:23:13.125Z,0.39
2019-01-09T07:25:41.642Z,0.45
2019-01-09T07:28:10.203Z,0.39
2019-01-09T07:30:38.880Z,0.42
2019-01-09T07:33:07.391Z,0.38
2019-01-09T07:35:35.914Z,0.40
2019-01-09T07:38:04.536Z,0.41
2019-01-09T07:40:33.036Z,0.41
2019-01-09T07:43:01.557Z,0.39
2019-01-09T07:45:30.091Z,0.39
2019-01-09T07:47:58.605Z,0.35
2019-01-09T07:50:27.138Z,0.42
2019-01-09T07:52:55.767Z,0.39
2019-01-09T07:55:24.268Z,0.35
2019-01-09T07:57:52.792Z,0.31
2019-01-09T08:00:21.334Z,0.34
2019-01-09T08:02:49.854Z,0.41
2019-01-09T08:05:18.689Z,0.46
2019-01-09T08:07:53.860Z,0.44
2019-01-09T08:10:16.946Z,0.44
2019-01-09T08:12:45.506Z,0.46
2019-01-09T08:15:14.064Z,0.53
2019-01-09T08:17:42.580Z,0.55
2019-01-09T08:20:11.102Z,0.58
2019-01-09T08:22:39.641Z,0.57
2019-01-09T08:25:08.169Z,0.58
2019-01-09T08:27:36.725Z,0.64
2019-01-09T08:30:05.219Z,0.62
2019-01-09T08:32:33.745Z,0.62
2019-01-09T08:35:02.286Z,0.57
2019-01-09T08:37:31.081Z,0.53
2019-01-09T08:39:59.601Z,0.57
2019-01-09T08:42:28.124Z,0.52
2019-01-09T08:44:56.643Z,0.56
2019-01-09T08:47:25.185Z,0.55
2019-01-09T08:49:53.699Z,0.61
2019-01-09T08:52:22.238Z,0.54
2019-01-09T08:54:51.718Z,0.58
2019-01-09T08:57:20.255Z,0.61
2019-01-09T08:59:49.695Z,0.53
2019-01-09T09:02:18.211Z,0.53
2019-01-09T09:04:46.733Z,0.48
2019-01-09T09:07:20.653Z,0.48
2019-01-09T09:09:49.178Z,0.53
2019-01-09T09:12:17.711Z,0.49
2019-01-09T09:14:46.252Z,0.50
2019-01-09T09:17:14.769Z,0.53
2019-01-09T09:19:43.293Z,0.58
2019-01-09T09:22:12.733Z,0.54
2019-01-09T09:24:41.258Z,0.59
2019-01-09T09:27:09.832Z,0.57
2019-01-09T09:29:38.326Z,0.61
2019-01-09T09:32:06.872Z,0.69
2019-01-09T09:34:35.383Z,0.58
2019-01-09T09:37:03.912Z,0.60
2019-01-09T09:39:32.440Z,0.62
2019-01-09T09:42:00.963Z,0.56
2019-01-09T09:44:29.514Z,0.60
2019-01-09T09:46:58.041Z,0.61
2019-01-09T09:49:26.552Z,0.58
2019-01-09T09:51:55.073Z,0.63
2019-01-09T09:54:23.623Z,0.63
2019-01-09T09:56:52.149Z,0.61
2019-01-09T09:59:21.007Z,0.72
2019-01-09T10:01:49.510Z,0.65
2019-01-09T10:04:18.076Z,0.72
2019-01-09T10:06:46.590Z,0.79
2019-01-09T10:09:15.207Z,0.72
2019-01-09T10:11:43.730Z,0.87
2019-01-09T10:14:12.262Z,0.76
2019-01-09T10:16:40.782Z,0.75
2019-01-09T10:19:11.190Z,0.71
2019-01-09T10:21:39.990Z,0.55
2019-01-09T10:24:08.513Z,0.65
2019-01-09T10:26:37.028Z,0.65
2019-01-09T10:29:05.558Z,0.58
2019-01-09T10:31:34.078Z,0.43
2019-01-09T10:34:02.599Z,0.60
2019-01-09T10:36:31.118Z,0.64
2019-01-09T10:38:59.639Z,0.59
2019-01-09T10:41:28.146Z,0.63
2019-01-09T10:43:56.685Z,0.69
2019-01-09T10:46:25.210Z,0.80
2019-01-09T10:48:53.733Z,0.82
2019-01-09T10:51:22.249Z,0.79
2019-01-09T10:53:50.764Z,0.79
2019-01-09T10:56:19.302Z,0.85
2019-01-09T10:58:47.806Z,0.77
2019-01-09T11:01:16.333Z,0.79
2019-01-09T11:03:44.841Z,0.77
2019-01-09T11:06:14.610Z,0.81
2019-01-09T11:08:47.131Z,0.91
2019-01-09T11:11:11.566Z,1.08
2019-01-09T11:13:40.061Z,0.91
2019-01-09T11:16:08.601Z,0.89
2019-01-09T11:18:37.117Z,0.85
2019-01-09T11:21:05.663Z,1.08
2019-01-09T11:23:34.189Z,1.02
2019-01-09T11:26:03.690Z,1.17
2019-01-09T11:28:32.194Z,1.21
2019-01-09T11:31:00.798Z,1.17
2019-01-09T11:33:29.294Z,1.04
2019-01-09T11:35:57.811Z,1.38
2019-01-09T11:38:26.347Z,1.15
2019-01-09T11:40:54.867Z,1.24
2019-01-09T11:43:23.386Z,1.27
2019-01-09T11:45:51.873Z,1.27
2019-01-09T11:48:20.419Z,1.17
2019-01-09T11:50:48.949Z,1.28
2019-01-09T11:53:17.459Z,1.10
2019-01-09T11:55:46.000Z,1.35
2019-01-09T11:58:14.514Z,1.09
2019-01-09T12:00:43.029Z,1.14
2019-01-09T12:03:11.578Z,1.14
2019-01-09T12:05:40.104Z,1.24
2019-01-09T12:08:08.668Z,1.20
2019-01-09T12:10:37.246Z,1.19
2019-01-09T12:13:06.498Z,1.33
2019-01-09T12:15:35.033Z,1.13
2019-01-09T12:18:03.576Z,1.16
2019-01-09T12:20:32.098Z,1.14
2019-01-09T12:23:00.622Z,1.08
2019-01-09T12:25:29.132Z,1.10
2019-01-09T12:27:57.637Z,1.18
2019-01-09T12:30:26.169Z,1.20
2019-01-09T12:32:54.680Z,1.16
2019-01-09T12:35:30.233Z,1.09
2019-01-09T12:37:58.734Z,0.90
2019-01-09T12:40:27.300Z,0.79
2019-01-09T12:42:55.843Z,0.81
2019-01-09T12:45:24.425Z,0.64
2019-01-09T12:47:52.901Z,0.63
2019-01-09T12:50:21.443Z,0.63
2019-01-09T12:52:49.967Z,0.62
2019-01-09T12:55:18.481Z,0.49
2019-01-09T12:57:47.034Z,0.44
2019-01-09T13:00:18.882Z,0.47
2019-01-09T13:02:47.405Z,0.50
2019-01-09T13:05:15.940Z,0.50
2019-01-09T13:07:44.514Z,0.47
2019-01-09T13:10:13.027Z,0.39
2019-01-09T13:12:41.575Z,0.43
2019-01-09T13:15:10.114Z,0.35
2019-01-09T13:17:38.661Z,0.36
2019-01-09T13:20:07.928Z,0.42
2019-01-09T13:22:36.455Z,0.46
2019-01-09T13:25:04.973Z,0.39
2019-01-09T13:27:33.502Z,0.41
2019-01-09T13:30:02.044Z,0.42
2019-01-09T13:32:30.596Z,0.32
2019-01-09T13:34:59.132Z,0.41
2019-01-09T13:37:28.690Z,0.42
2019-01-09T13:39:57.193Z,0.34
2019-01-09T13:42:25.744Z,0.40
2019-01-09T13:44:54.262Z,0.36
2019-01-09T13:47:25.515Z,0.26
2019-01-09T13:49:54.497Z,0.28
2019-01-09T13:52:23.036Z,0.34
2019-01-09T13:54:51.560Z,0.27
2019-01-09T13:57:20.074Z,0.30
2019-01-09T13:59:48.634Z,0.30
2019-01-09T14:02:17.157Z,0.15
2019-01-09T14:04:45.677Z,0.20
2019-01-09T14:07:14.198Z,0.17
2019-01-09T14:09:42.722Z,0.09
2019-01-09T14:12:11.335Z,0.18
2019-01-09T14:14:39.826Z,0.19
2019-01-09T14:17:08.360Z,0.17
2019-01-09T14:19:36.884Z,0.12
2019-01-09T14:22:05.396Z,0.04
2019-01-09T14:24:34.866Z,-0.05
2019-01-09T14:27:03.375Z,-0.03
2019-01-09T14:29:37.077Z,-0.13
2019-01-09T14:32:05.604Z,-0.14
2019-01-09T14:34:34.145Z,-0.13
2019-01-09T14:37:02.677Z,-0.18
2019-01-09T14:39:31.219Z,-0.18
2019-01-09T14:41:59.781Z,-0.19
2019-01-09T14:44:28.326Z,-0.20
2019-01-09T14:46:56.906Z,-0.19
2019-01-09T14:49:25.441Z,-0.30
2019-01-09T14:51:54.002Z,-0.33
2019-01-09T14:54:22.859Z,-0.39
2019-01-09T14:56:51.565Z,-0.31
2019-01-09T14:59:20.086Z,-0.39
2019-01-09T15:01:48.634Z,-0.39
2019-01-09T15:04:17.664Z,-0.47
2019-01-09T15:06:45.804Z,-0.46
2019-01-09T15:09:14.325Z,-0.50
2019-01-09T15:11:42.920Z,-0.57
2019-01-09T15:14:11.473Z,-0.62
2019-01-09T15:16:40.008Z,-0.65
2019-01-09T15:19:08.547Z,-0.62
2019-01-09T15:21:37.067Z,-0.71
2019-01-09T15:24:08.549Z,-0.65
2019-01-09T15:26:34.136Z,-0.67
2019-01-09T15:29:02.685Z,-0.66
2019-01-09T15:31:31.205Z,-0.64
2019-01-09T15:33:59.742Z,-0.77
2019-01-09T15:36:28.284Z,-0.79
2019-01-09T15:38:56.818Z,-0.77
2019-01-09T15:41:25.373Z,-0.71
2019-01-09T15:43:53.915Z,-0.71
2019-01-09T15:46:24.026Z,-0.68
2019-01-09T15:48:51.121Z,-0.79
2019-01-09T15:51:19.753Z,-0.84
2019-01-09T15:53:48.286Z,-0.81
2019-01-09T15:56:17.792Z,-0.80
2019-01-09T15:58:46.329Z,-0.85
2019-01-09T16:01:14.882Z,-0.84
2019-01-09T16:03:43.422Z,-0.90
2019-01-09T16:06:11.958Z,-0.91
2019-01-09T16:08:41.158Z,-0.90
2019-01-09T16:11:10.687Z,-0.87
2019-01-09T16:13:39.378Z,-0.84
2019-01-09T16:16:07.912Z,-0.86
2019-01-09T16:18:36.434Z,-0.89
2019-01-09T16:21:10.109Z,-0.91
2019-01-09T16:23:39.015Z,-0.86
2019-01-09T16:26:07.575Z,-0.90
2019-01-09T16:28:36.105Z,-0.87
2019-01-09T16:31:04.646Z,-0.89
2019-01-09T16:33:33.198Z,-0.84
2019-01-09T16:36:01.867Z,-0.83
2019-01-09T16:38:30.414Z,-0.84
2019-01-09T16:40:58.947Z,-0.74
2019-01-09T16:43:27.502Z,-0.90
2019-01-09T16:45:56.028Z,-0.94
2019-01-09T16:48:24.552Z,-0.97
2019-01-09T16:50:53.110Z,-1.03
2019-01-09T16:53:21.657Z,-1.01
2019-01-09T16:55:50.195Z,-0.93
2019-01-09T16:58:18.749Z,-0.93
2019-01-09T17:00:47.293Z,-0.88
2019-01-09T17:03:15.836Z,-0.88
2019-01-09T17:05:44.354Z,-0.93
2019-01-09T17:08:12.885Z,-0.97
2019-01-09T17:10:41.441Z,-0.97
2019-01-09T17:13:10.963Z,-0.88
2019-01-09T17:15:39.580Z,-0.96
2019-01-09T17:18:08.023Z,-0.95
2019-01-09T17:20:36.547Z,-1.04
2019-01-09T17:23:05.093Z,-0.92
2019-01-09T17:25:33.615Z,-0.90
2019-01-09T17:28:05.819Z,-1.01
2019-01-09T17:30:44.375Z,-0.96
2019-01-09T17:33:23.211Z,-0.95
2019-01-09T17:35:51.732Z,-1.01
2019-01-09T17:38:32.704Z,-0.98
2019-01-09T17:41:03.159Z,-1.02
2019-01-09T17:43:31.730Z,-0.95
2019-01-09T17:46:00.261Z,-1.00
2019-01-09T17:48:28.786Z,-0.97
2019-01-09T17:50:58.257Z,-0.95
2019-01-09T17:53:26.778Z,-0.94
2019-01-09T17:56:05.972Z,-1.03
2019-01-09T17:58:35.957Z,-1.05
2019-01-09T18:01:04.547Z,-1.06
2019-01-09T18:03:33.088Z,-1.00
2019-01-09T18:06:01.612Z,-1.00
2019-01-09T18:08:30.152Z,-1.03
2019-01-09T18:10:59.760Z,-0.97
2019-01-09T18:13:28.323Z,-0.93
2019-01-09T18:16:02.665Z,-0.89
2019-01-09T18:18:31.247Z,-0.89
2019-01-09T18:20:59.827Z,-1.01
2019-01-09T18:23:28.367Z,-1.04
2019-01-09T18:25:56.982Z,-1.00
2019-01-09T18:28:25.534Z,-1.06
2019-01-09T18:31:03.325Z,-0.97
2019-01-09T18:33:28.870Z,-0.99
2019-01-09T18:36:32.197Z,-0.97
2019-01-09T18:39:08.702Z,-1.00
2019-01-09T18:44:46.440Z,-1.14
2019-01-09T18:47:26.566Z,-1.06
2019-01-09T18:52:53.880Z,-1.07
2019-01-09T18:55:22.426Z,-1.08
2019-01-09T18:57:50.970Z,-1.09
2019-01-09T19:00:19.490Z,-1.05
2019-01-09T19:02:48.059Z,-1.07
2019-01-09T19:05:23.233Z,-1.04
2019-01-09T19:07:51.777Z,-1.13
2019-01-09T19:10:20.322Z,-1.08
2019-01-09T19:12:50.595Z,-1.08
2019-01-09T19:15:17.406Z,-1.05
2019-01-09T19:17:45.961Z,-1.14
2019-01-09T19:20:14.491Z,-1.05
2019-01-09T19:22:43.090Z,-0.99
2019-01-09T19:25:12.234Z,-1.10
2019-01-09T19:27:40.786Z,-1.06
2019-01-09T19:30:12.803Z,-1.12
2019-01-09T19:32:41.363Z,-1.15
2019-01-09T19:35:10.056Z,-1.19
2019-01-09T19:37:39.586Z,-1.15
2019-01-09T19:40:08.129Z,-1.12
2019-01-09T19:42:36.726Z,-1.11
2019-01-09T19:45:06.246Z,-1.03
2019-01-09T19:47:35.771Z,-1.12
2019-01-09T19:50:09.178Z,-1.19
2019-01-09T19:52:43.470Z,-1.11
2019-01-09T19:55:12.060Z,-1.12
2019-01-09T19:57:40.601Z,-1.28
2019-01-09T20:00:13.845Z,-1.22
2019-01-09T20:02:46.810Z,-1.19
2019-01-09T20:05:17.315Z,-1.20
2019-01-09T20:07:46.252Z,-1.16
2019-01-09T20:10:15.743Z,-1.24
2019-01-09T20:12:44.282Z,-1.27
2019-01-09T20:15:12.883Z,-1.27
2019-01-09T20:17:41.640Z,-1.32
2019-01-09T20:20:10.919Z,-1.31
2019-01-09T20:22:40.352Z,-1.41
2019-01-09T20:25:09.737Z,-1.33
2019-01-09T20:27:39.174Z,-1.41
2019-01-09T20:30:11.337Z,-1.41
2019-01-09T20:32:39.880Z,-1.40
2019-01-09T20:35:10.621Z,-1.40
2019-01-09T20:37:39.267Z,-1.25
2019-01-09T20:40:08.017Z,-1.35
2019-01-09T20:42:36.651Z,-1.38
2019-01-09T20:45:05.400Z,-1.38
2019-01-09T20:47:34.096Z,-1.26
2019-01-09T20:50:02.651Z,-1.30
2019-01-09T20:52:31.495Z,-1.27
2019-01-09T20:55:00.262Z,-1.28
2019-01-09T20:57:28.788Z,-1.29
2019-01-09T20:59:58.615Z,-1.32
2019-01-09T21:02:29.273Z,-1.34
2019-01-09T21:04:57.920Z,-1.37
2019-01-09T21:07:27.290Z,-1.38
2019-01-09T21:09:55.978Z,-1.43
2019-01-09T21:12:24.565Z,-1.37
2019-01-09T21:14:55.031Z,-1.35
2019-01-09T21:17:23.656Z,-1.34
2019-01-09T21:19:52.234Z,-1.38
2019-01-09T21:22:21.715Z,-1.30
2019-01-09T21:24:50.393Z,-1.30
2019-01-09T21:27:18.905Z,-1.21
2019-01-09T21:29:47.446Z,-1.18
2019-01-09T21:32:16.006Z,-1.39
2019-01-09T21:34:46.494Z,-1.33
2019-01-09T21:37:15.027Z,-1.41
2019-01-09T21:39:43.714Z,-1.43
2019-01-09T21:42:12.323Z,-1.46
2019-01-09T21:44:43.053Z,-1.41
2019-01-09T21:47:11.907Z,-1.47
2019-01-09T21:49:40.599Z,-1.33
2019-01-09T21:52:09.177Z,-1.31
2019-01-09T21:54:37.765Z,-1.32
2019-01-09T21:57:06.426Z,-1.30
2019-01-09T21:59:35.098Z,-1.29
2019-01-09T22:02:03.656Z,-1.32
2019-01-09T22:04:32.170Z,-1.36
2019-01-09T22:07:00.979Z,-1.38
2019-01-09T22:09:29.521Z,-1.29
2019-01-09T22:12:02.636Z,-1.39
2019-01-09T22:14:26.632Z,-1.38
2019-01-09T22:16:55.242Z,-1.37
2019-01-09T22:19:23.773Z,-1.48
2019-01-09T22:21:52.308Z,-1.40
2019-01-09T22:24:20.847Z,-1.39
2019-01-09T22:26:56.899Z,-1.43
2019-01-09T22:29:25.848Z,-1.34
2019-01-09T22:31:54.384Z,-1.33
2019-01-09T22:34:24.883Z,-1.28
2019-01-09T22:36:53.421Z,-1.34
2019-01-09T22:39:23.914Z,-1.34
2019-01-09T22:41:52.460Z,-1.28
2019-01-09T22:44:21.002Z,-1.16
2019-01-09T22:46:50.162Z,-1.26
2019-01-09T22:49:18.704Z,-1.33
2019-01-09T22:51:47.218Z,-1.40
2019-01-09T22:54:15.775Z,-1.41
2019-01-09T22:56:44.410Z,-1.27
2019-01-09T22:59:12.863Z,-1.26
2019-01-09T23:01:41.396Z,-1.40
2019-01-09T23:04:09.945Z,-1.32
2019-01-09T23:06:38.494Z,-1.35
2019-01-09T23:09:07.042Z,-1.44
2019-01-09T23:11:35.569Z,-1.45
2019-01-09T23:14:04.126Z,-1.39
2019-01-09T23:16:33.978Z,-1.43
2019-01-09T23:19:02.768Z,-1.41
2019-01-09T23:21:33.169Z,-1.43
2019-01-09T23:23:59.874Z,-1.45
2019-01-09T23:26:28.426Z,-1.49
2019-01-09T23:28:56.960Z,-1.51
2019-01-09T23:31:26.525Z,-1.52
2019-01-09T23:33:55.967Z,-1.44
2019-01-09T23:36:24.498Z,-1.38
2019-01-09T23:38:53.051Z,-1.35
2019-01-09T23:41:21.600Z,-1.30
2019-01-09T23:43:50.122Z,-1.27
2019-01-09T23:46:18.671Z,-1.37
2019-01-09T23:48:47.234Z,-1.37
2019-01-09T23:51:15.821Z,-1.26
2019-01-09T23:53:44.349Z,-1.32
2019-01-09T23:56:12.891Z,-1.32
2019-01-09T23:58:41.459Z,-1.40
